Time;durP1;ratioP1;P1;durP2;ratioP2;P2;SDS_P1;SDS_P2;PMS_P1;PMS_P2;Temp;Humidity;BMP_temperature;BMP_pressure;BME280_temperature;BME280_humidity;BME280_pressure;Samples;Min_cycle;Max_cycle;Signal;HPM_P1;HPM_P2
2022/09/30 00:00:40;;;;;;;2.08;1.58;;;;;;;5.06;100.00;100231.25;5013544;28;20056;-55
2022/09/30 00:03:05;;;;;;;6.95;2.30;;;;;;;4.93;100.00;100232.53;5007232;28;20041;-53
2022/09/30 00:05:31;;;;;;;4.65;1.73;;;;;;;4.79;100.00;100231.34;5004670;28;20049;-52
2022/09/30 00:07:56;;;;;;;1.80;1.52;;;;;;;4.69;100.00;100233.28;5008600;28;20075;-54
2022/09/30 00:10:21;;;;;;;7.45;2.40;;;;;;;4.60;100.00;100234.25;5008033;28;20172;-51
2022/09/30 00:12:47;;;;;;;5.85;1.92;;;;;;;4.56;100.00;100238.97;5010991;28;20403;-51
2022/09/30 00:15:13;;;;;;;1.75;1.65;;;;;;;4.48;100.00;100241.56;5009391;28;20048;-52
2022/09/30 00:17:38;;;;;;;1.67;1.50;;;;;;;4.42;100.00;100241.38;5008751;28;20030;-56
2022/09/30 00:20:04;;;;;;;3.65;2.38;;;;;;;4.35;100.00;100241.16;5006441;28;20065;-53
2022/09/30 00:22:29;;;;;;;7.65;1.85;;;;;;;4.30;100.00;100249.50;5010252;28;20030;-56
2022/09/30 00:24:54;;;;;;;2.75;2.55;;;;;;;4.25;100.00;100251.78;5010248;28;20048;-52
2022/09/30 00:27:20;;;;;;;4.57;2.58;;;;;;;4.15;100.00;100248.44;5010897;28;20115;-53
2022/09/30 00:29:45;;;;;;;5.60;2.55;;;;;;;4.13;100.00;100253.84;5010014;28;20042;-52
2022/09/30 00:32:11;;;;;;;4.25;2.40;;;;;;;4.08;100.00;100245.63;5009004;28;20018;-52
2022/09/30 00:34:36;;;;;;;4.20;2.65;;;;;;;4.02;100.00;100254.09;5005437;28;20023;-54
2022/09/30 00:37:02;;;;;;;5.63;2.40;;;;;;;3.99;100.00;100258.84;5006056;28;20029;-52
2022/09/30 00:39:28;;;;;;;4.47;2.13;;;;;;;3.95;100.00;100258.34;5004066;28;20034;-53
2022/09/30 00:41:59;;;;;;;3.67;1.63;;;;;;;3.89;100.00;100256.31;5008599;28;20049;-52
2022/09/30 00:44:46;;;;;;;8.57;2.88;;;;;;;3.83;100.00;100264.78;5008404;28;20034;-52
2022/09/30 00:47:24;;;;;;;2.33;1.38;;;;;;;3.81;100.00;100264.13;5008724;28;20418;-52
2022/09/30 00:49:51;;;;;;;4.28;1.45;;;;;;;3.76;100.00;100256.69;5009202;28;20128;-52
2022/09/30 00:52:18;;;;;;;1.77;1.27;;;;;;;3.80;100.00;100257.22;5009224;28;20692;-52
2022/09/30 00:54:43;;;;;;;5.20;1.38;;;;;;;3.83;100.00;100259.53;5009331;28;20483;-53
2022/09/30 00:57:09;;;;;;;2.22;1.33;;;;;;;3.92;100.00;100266.47;5009523;28;20045;-51
2022/09/30 00:59:49;;;;;;;4.43;2.28;;;;;;;4.06;100.00;100252.00;5008043;28;20037;-52
2022/09/30 01:02:14;;;;;;;2.65;1.83;;;;;;;4.13;100.00;100256.47;5007649;28;20088;-51
2022/09/30 01:04:41;;;;;;;6.40;2.42;;;;;;;4.21;100.00;100252.22;5008556;28;20065;-53
2022/09/30 01:07:09;;;;;;;1.25;1.15;;;;;;;4.27;100.00;100254.25;5006071;28;20029;-54
2022/09/30 01:09:37;;;;;;;3.70;1.73;;;;;;;4.34;100.00;100252.66;5005232;28;20034;-53
2022/09/30 01:12:11;;;;;;;4.78;1.38;;;;;;;4.42;100.00;100257.94;5008074;28;20502;-51
2022/09/30 01:14:37;;;;;;;5.20;2.10;;;;;;;4.51;100.00;100267.50;5009322;28;20026;-55
2022/09/30 01:17:21;;;;;;;3.80;1.75;;;;;;;4.66;100.00;100272.16;5008591;28;20034;-54
2022/09/30 01:20:05;;;;;;;2.25;1.52;;;;;;;4.76;100.00;100265.81;5005858;28;20045;-54
2022/09/30 01:22:40;;;;;;;3.85;1.92;;;;;;;4.92;100.00;100265.03;5008057;28;20125;-52
2022/09/30 01:25:16;;;;;;;2.63;1.88;;;;;;;4.98;100.00;100264.41;5007307;28;20129;-55
2022/09/30 01:28:20;;;;;;;4.28;2.08;;;;;;;5.08;100.00;100269.50;5007881;28;20026;-54
2022/09/30 01:30:58;;;;;;;3.67;2.22;;;;;;;5.16;100.00;100271.34;5004114;28;20036;-56
2022/09/30 01:33:32;;;;;;;2.67;1.60;;;;;;;5.23;100.00;100277.59;5008237;28;20497;-54
2022/09/30 01:36:05;;;;;;;3.95;1.40;;;;;;;5.28;100.00;100263.97;5005194;28;20029;-53
2022/09/30 01:39:01;;;;;;;3.38;1.70;;;;;;;5.37;100.00;100271.72;5003201;28;20704;-56
2022/09/30 01:41:41;;;;;;;5.22;2.70;;;;;;;5.45;100.00;100271.75;5007453;28;20061;-54
2022/09/30 01:44:27;;;;;;;2.42;1.73;;;;;;;5.51;100.00;100266.81;5006270;28;20025;-53
2022/09/30 01:47:04;;;;;;;4.22;2.03;;;;;;;5.56;100.00;100269.78;5004516;28;20038;-54
2022/09/30 01:49:39;;;;;;;4.03;1.75;;;;;;;5.61;100.00;100259.59;5005755;28;20033;-54
2022/09/30 01:52:22;;;;;;;1.90;1.48;;;;;;;5.65;100.00;100255.63;5007009;28;20037;-52
2022/09/30 01:54:57;;;;;;;6.68;1.85;;;;;;;5.64;100.00;100254.00;5004767;28;20062;-55
2022/09/30 01:57:26;;;;;;;2.67;1.80;;;;;;;5.64;100.00;100257.44;5003485;28;20066;-52
2022/09/30 01:59:59;;;;;;;5.22;1.98;;;;;;;5.64;100.00;100260.06;5007831;28;20037;-54
2022/09/30 02:02:28;;;;;;;6.55;2.05;;;;;;;5.62;100.00;100256.78;5005300;28;20052;-52
2022/09/30 02:04:58;;;;;;;2.90;1.90;;;;;;;5.60;100.00;100263.19;5007138;28;20034;-54
2022/09/30 02:07:46;;;;;;;3.83;1.88;;;;;;;5.50;100.00;100262.53;5008141;28;20564;-52
2022/09/30 02:10:36;;;;;;;4.18;2.00;;;;;;;5.44;100.00;100267.44;5004536;28;20045;-56
2022/09/30 02:13:35;;;;;;;4.15;2.28;;;;;;;5.52;100.00;100261.38;5002373;28;20053;-54
2022/09/30 02:16:11;;;;;;;3.03;1.17;;;;;;;5.59;100.00;100264.19;4995488;28;20128;-50
2022/09/30 02:18:58;;;;;;;2.53;1.63;;;;;;;5.59;100.00;100266.81;5003082;28;20025;-53
2022/09/30 02:21:31;;;;;;;2.70;2.05;;;;;;;5.61;100.00;100264.84;5007966;28;20483;-57
2022/09/30 02:24:04;;;;;;;2.90;1.77;;;;;;;5.67;100.00;100258.91;4997158;28;20033;-53
2022/09/30 02:26:35;;;;;;;3.42;1.55;;;;;;;5.70;100.00;100253.31;5007506;28;20486;-55
2022/09/30 02:29:07;;;;;;;5.85;2.70;;;;;;;5.74;100.00;100259.91;5003479;28;21304;-54
2022/09/30 02:31:37;;;;;;;2.83;1.42;;;;;;;5.78;100.00;100258.59;4999733;28;20046;-55
2022/09/30 02:34:12;;;;;;;3.60;2.05;;;;;;;5.84;100.00;100259.75;5008360;28;20026;-52
2022/09/30 02:36:45;;;;;;;4.80;1.52;;;;;;;5.88;100.00;100253.16;5005944;28;20036;-55
2022/09/30 02:39:20;;;;;;;4.30;1.85;;;;;;;6.00;100.00;100261.56;5007438;28;20541;-54
2022/09/30 02:41:51;;;;;;;2.30;1.58;;;;;;;6.05;100.00;100260.06;5008660;28;20406;-52
2022/09/30 02:44:18;;;;;;;1.92;1.80;;;;;;;6.09;100.00;100264.03;5008935;28;20518;-56
2022/09/30 02:47:23;;;;;;;4.00;1.52;;;;;;;6.18;100.00;100267.47;5005527;28;20132;-51
2022/09/30 02:49:55;;;;;;;3.80;1.55;;;;;;;6.20;100.00;100264.69;5004795;28;20049;-52
2022/09/30 02:52:23;;;;;;;3.55;1.67;;;;;;;6.22;100.00;100260.88;5001611;28;20106;-55
2022/09/30 02:54:51;;;;;;;9.40;2.00;;;;;;;6.26;100.00;100264.81;5008322;28;20752;-52
2022/09/30 02:57:41;;;;;;;4.32;2.33;;;;;;;6.33;100.00;100276.31;5004280;28;20026;-55
2022/09/30 03:00:08;;;;;;;3.58;2.88;;;;;;;6.39;100.00;100287.97;5005148;28;20521;-54
2022/09/30 03:02:33;;;;;;;3.17;1.30;;;;;;;6.48;100.00;100288.78;5001832;28;20495;-51
2022/09/30 03:04:59;;;;;;;10.65;3.33;;;;;;;6.53;100.00;100294.34;5003323;28;20057;-52
2022/09/30 03:07:24;;;;;;;3.10;1.98;;;;;;;6.58;100.00;100296.50;5006908;28;20026;-51
2022/09/30 03:09:56;;;;;;;3.03;1.48;;;;;;;6.61;100.00;100291.72;5002991;28;20065;-51
2022/09/30 03:12:40;;;;;;;4.28;2.13;;;;;;;6.68;100.00;100287.41;5008837;28;20052;-51
2022/09/30 03:15:38;;;;;;;3.28;1.73;;;;;;;6.73;100.00;100286.88;5002381;28;20038;-57
2022/09/30 03:18:36;;;;;;;5.18;2.15;;;;;;;6.78;100.00;100290.66;5001496;28;20041;-56
2022/09/30 03:21:18;;;;;;;4.43;1.70;;;;;;;6.83;100.00;100286.69;4972514;28;20510;-53
2022/09/30 03:23:59;;;;;;;4.18;1.80;;;;;;;6.88;100.00;100284.38;5007725;28;20511;-54
2022/09/30 03:26:43;;;;;;;2.47;1.85;;;;;;;6.93;100.00;100287.31;4996483;28;20080;-52
2022/09/30 03:29:39;;;;;;;1.73;1.63;;;;;;;7.00;100.00;100285.63;5005404;28;20026;-51
2022/09/30 03:32:28;;;;;;;3.72;2.40;;;;;;;7.09;100.00;100278.50;5010705;28;20041;-57
2022/09/30 03:35:25;;;;;;;2.88;2.50;;;;;;;7.15;100.00;100278.63;5008891;28;20376;-56
2022/09/30 03:37:59;;;;;;;4.22;1.63;;;;;;;7.16;100.00;100285.53;4994613;28;20038;-54
2022/09/30 03:40:48;;;;;;;2.10;1.77;;;;;;;7.20;100.00;100281.56;5007757;28;20034;-54
2022/09/30 03:43:24;;;;;;;3.00;2.75;;;;;;;7.28;100.00;100285.13;5009826;28;20045;-56
2022/09/30 03:46:00;;;;;;;4.53;2.88;;;;;;;7.33;100.00;100277.53;5003930;28;20034;-55
2022/09/30 03:48:30;;;;;;;3.28;2.35;;;;;;;7.36;100.00;100277.19;5007284;28;20117;-55
2022/09/30 03:50:56;;;;;;;5.72;2.17;;;;;;;7.35;100.00;100275.53;5007727;28;20479;-57
2022/09/30 03:53:21;;;;;;;3.55;3.08;;;;;;;7.40;100.00;100275.84;5007992;28;20026;-56
2022/09/30 03:55:51;;;;;;;5.45;2.53;;;;;;;7.48;100.00;100273.13;5004574;28;20034;-53
2022/09/30 03:58:21;;;;;;;5.35;3.53;;;;;;;7.56;100.00;100269.63;5008234;28;20030;-57
2022/09/30 04:00:55;;;;;;;7.72;3.47;;;;;;;7.63;100.00;100260.81;5006143;28;20045;-55
2022/09/30 04:03:22;;;;;;;7.25;3.83;;;;;;;7.67;100.00;100263.09;5006199;28;20037;-55
2022/09/30 04:05:48;;;;;;;7.47;4.50;;;;;;;7.78;100.00;100260.06;5007687;28;20057;-53
2022/09/30 04:08:14;;;;;;;4.47;4.07;;;;;;;7.89;100.00;100251.69;5009761;28;20034;-57
2022/09/30 04:10:41;;;;;;;5.03;3.83;;;;;;;7.99;100.00;100246.16;5006138;28;20487;-55
2022/09/30 04:13:07;;;;;;;6.13;4.13;;;;;;;8.02;100.00;100249.25;5003250;28;20053;-54
2022/09/30 04:15:33;;;;;;;3.75;3.47;;;;;;;8.03;100.00;100253.56;5009155;28;20026;-53
2022/09/30 04:17:59;;;;;;;4.53;3.50;;;;;;;7.98;100.00;100255.91;5007671;28;20033;-57
2022/09/30 04:20:24;;;;;;;4.70;3.65;;;;;;;8.00;100.00;100253.94;5009729;28;20080;-56
2022/09/30 04:22:50;;;;;;;7.93;4.82;;;;;;;8.13;100.00;100252.47;5010569;28;20056;-58
2022/09/30 04:25:15;;;;;;;6.80;3.80;;;;;;;8.17;100.00;100256.41;5008723;28;20049;-54
2022/09/30 04:27:40;;;;;;;4.68;3.70;;;;;;;8.18;100.00;100256.19;5011361;28;20034;-54
2022/09/30 04:30:06;;;;;;;7.00;5.93;;;;;;;8.20;100.00;100263.94;5005036;28;20438;-54
2022/09/30 04:32:32;;;;;;;6.20;4.72;;;;;;;8.19;100.00;100263.13;5008536;28;20048;-56
2022/09/30 04:34:57;;;;;;;4.28;3.47;;;;;;;8.19;100.00;100265.78;5005159;28;20475;-55
2022/09/30 04:37:23;;;;;;;7.63;4.45;;;;;;;8.22;100.00;100265.41;5004706;28;20384;-57
2022/09/30 04:39:48;;;;;;;8.07;4.05;;;;;;;8.21;100.00;100261.16;5005837;28;20444;-56
2022/09/30 04:42:14;;;;;;;7.95;4.18;;;;;;;8.25;100.00;100262.41;5003901;28;20037;-58
2022/09/30 04:44:39;;;;;;;10.30;4.82;;;;;;;8.28;100.00;100271.78;5007144;28;20117;-55
2022/09/30 04:47:05;;;;;;;6.35;4.68;;;;;;;8.34;100.00;100270.25;5007401;28;20121;-57
2022/09/30 04:49:31;;;;;;;8.10;4.88;;;;;;;8.35;100.00;100278.00;5006251;28;20367;-52
2022/09/30 04:51:56;;;;;;;9.68;3.53;;;;;;;8.35;100.00;100279.81;5004717;28;20037;-58
2022/09/30 04:54:23;;;;;;;5.43;3.67;;;;;;;8.34;100.00;100278.16;5006351;28;20034;-54
2022/09/30 04:56:48;;;;;;;4.57;4.10;;;;;;;8.31;100.00;100279.34;5007443;28;20045;-53
2022/09/30 04:59:13;;;;;;;6.53;2.90;;;;;;;8.32;100.00;100273.09;5007380;28;20487;-58
2022/09/30 05:01:41;;;;;;;4.18;3.88;;;;;;;8.30;100.00;100270.59;5006502;28;20438;-56
2022/09/30 05:04:07;;;;;;;6.30;4.80;;;;;;;8.25;100.00;100266.88;5006889;28;20423;-57
2022/09/30 05:06:32;;;;;;;6.20;4.05;;;;;;;8.26;100.00;100257.94;5008827;28;20064;-53
2022/09/30 05:08:57;;;;;;;4.03;3.33;;;;;;;8.27;100.00;100259.59;5005488;28;20037;-57
2022/09/30 05:11:23;;;;;;;4.80;4.00;;;;;;;8.25;100.00;100267.69;5008973;28;20034;-55
2022/09/30 05:13:49;;;;;;;14.50;5.72;;;;;;;8.26;100.00;100263.22;5005372;28;20061;-54
2022/09/30 05:16:15;;;;;;;8.13;4.82;;;;;;;8.27;100.00;100270.16;5009998;28;20467;-56
2022/09/30 05:18:44;;;;;;;9.98;3.70;;;;;;;8.24;100.00;100268.69;5006782;28;20451;-57
2022/09/30 05:21:11;;;;;;;6.95;5.20;;;;;;;8.24;100.00;100265.25;5004462;28;20030;-53
2022/09/30 05:23:37;;;;;;;11.05;3.85;;;;;;;8.26;100.00;100266.69;5004245;28;20032;-57
2022/09/30 05:26:02;;;;;;;6.15;4.10;;;;;;;8.29;100.00;100268.16;5009823;28;20050;-58
2022/09/30 05:28:30;;;;;;;3.60;3.30;;;;;;;8.29;100.00;100274.25;5007889;28;20063;-55
2022/09/30 05:31:01;;;;;;;9.13;4.15;;;;;;;8.34;100.00;100268.44;5006997;28;20053;-58
2022/09/30 05:33:31;;;;;;;7.82;4.35;;;;;;;8.35;100.00;100262.16;5004248;28;20030;-58
2022/09/30 05:36:01;;;;;;;11.48;4.90;;;;;;;8.36;100.00;100257.69;5009538;28;20041;-53
2022/09/30 05:38:26;;;;;;;6.40;4.88;;;;;;;8.34;100.00;100249.09;5004513;28;20015;-56
2022/09/30 05:40:53;;;;;;;6.68;4.05;;;;;;;8.31;100.00;100252.94;5002540;28;20064;-59
2022/09/30 05:43:19;;;;;;;5.68;4.07;;;;;;;8.33;100.00;100252.75;5009629;28;20037;-55
2022/09/30 05:45:53;;;;;;;5.95;4.15;;;;;;;8.32;100.00;100254.59;5005209;28;20022;-53
2022/09/30 05:48:19;;;;;;;6.25;4.63;;;;;;;8.32;100.00;100254.59;5002125;28;20115;-56
2022/09/30 05:50:47;;;;;;;6.18;4.35;;;;;;;8.32;100.00;100253.78;4998162;28;20431;-58
2022/09/30 05:53:13;;;;;;;7.50;5.03;;;;;;;8.33;100.00;100258.03;4999009;28;20470;-58
2022/09/30 05:55:38;;;;;;;5.40;4.75;;;;;;;8.32;100.00;100256.41;5003442;28;20742;-57
2022/09/30 05:58:03;;;;;;;3.53;2.88;;;;;;;8.33;100.00;100255.41;5003971;28;20352;-58
2022/09/30 06:00:29;;;;;;;7.63;4.50;;;;;;;8.35;100.00;100251.56;5001070;28;20026;-55
2022/09/30 06:02:55;;;;;;;9.77;4.57;;;;;;;8.35;100.00;100259.50;5001547;28;20033;-56
2022/09/30 06:05:20;;;;;;;7.93;4.30;;;;;;;8.33;100.00;100253.56;5001151;28;20022;-57
2022/09/30 06:07:46;;;;;;;7.55;5.40;;;;;;;8.33;100.00;100256.22;5001252;28;20084;-55
2022/09/30 06:10:11;;;;;;;7.82;5.68;;;;;;;8.32;100.00;100251.13;4997588;28;20105;-56
2022/09/30 06:12:37;;;;;;;9.70;4.88;;;;;;;8.30;100.00;100248.66;5001003;28;20145;-57
2022/09/30 06:15:04;;;;;;;5.68;3.95;;;;;;;8.27;100.00;100256.94;5001242;28;20033;-53
2022/09/30 06:17:29;;;;;;;9.15;4.93;;;;;;;8.27;100.00;100249.03;5004521;28;20037;-56
2022/09/30 06:19:55;;;;;;;7.28;5.10;;;;;;;8.27;100.00;100243.75;5006209;28;20026;-57
2022/09/30 06:22:21;;;;;;;6.82;4.72;;;;;;;8.27;100.00;100249.03;4997569;28;20032;-56
2022/09/30 06:24:46;;;;;;;4.35;3.63;;;;;;;8.26;100.00;100242.09;4999315;28;20026;-55
2022/09/30 06:27:12;;;;;;;5.93;3.63;;;;;;;8.25;100.00;100248.38;5001676;28;20453;-59
2022/09/30 06:29:37;;;;;;;9.40;5.28;;;;;;;8.24;100.00;100238.84;5003097;28;20617;-57
2022/09/30 06:32:03;;;;;;;5.70;3.47;;;;;;;8.23;100.00;100242.47;5001096;28;20422;-58
2022/09/30 06:34:28;;;;;;;13.20;5.38;;;;;;;8.23;100.00;100237.16;4998150;28;20125;-57
2022/09/30 06:36:54;;;;;;;10.68;4.28;;;;;;;8.21;100.00;100240.00;5000565;28;20048;-55
2022/09/30 06:39:19;;;;;;;7.28;3.65;;;;;;;8.20;100.00;100237.53;4996965;28;20452;-57
2022/09/30 06:41:45;;;;;;;11.55;4.72;;;;;;;8.19;100.00;100236.72;4995503;28;20030;-57
2022/09/30 06:44:11;;;;;;;15.70;5.97;;;;;;;8.17;100.00;100243.19;4991967;28;20068;-59
2022/09/30 06:46:37;;;;;;;5.60;4.15;;;;;;;8.16;100.00;100228.31;4989743;28;20499;-54
2022/09/30 06:49:03;;;;;;;8.68;3.35;;;;;;;8.15;100.00;100230.16;4990103;28;20026;-58
2022/09/30 06:51:31;;;;;;;9.45;4.30;;;;;;;8.15;100.00;100219.59;5000749;28;20586;-59
2022/09/30 06:53:57;;;;;;;3.92;3.08;;;;;;;8.14;100.00;100223.25;4988360;28;20598;-53
2022/09/30 06:56:22;;;;;;;5.85;3.88;;;;;;;8.13;100.00;100218.13;4999205;28;20030;-57
2022/09/30 06:58:48;;;;;;;5.47;2.88;;;;;;;8.15;100.00;100213.50;5000488;28;20032;-57
2022/09/30 07:01:14;;;;;;;5.80;3.95;;;;;;;8.17;100.00;100207.03;4997620;28;20117;-58
2022/09/30 07:03:42;;;;;;;5.25;3.80;;;;;;;8.21;100.00;100207.47;4992855;28;20038;-60
2022/09/30 07:06:07;;;;;;;9.25;3.85;;;;;;;8.24;100.00;100201.84;4998684;28;20034;-58
2022/09/30 07:08:35;;;;;;;4.38;2.80;;;;;;;8.27;100.00;100207.56;4998540;28;20806;-58
2022/09/30 07:11:04;;;;;;;5.15;3.63;;;;;;;8.30;100.00;100207.22;5002376;28;20480;-54
2022/09/30 07:13:29;;;;;;;6.65;3.35;;;;;;;8.33;100.00;100211.31;4998994;28;20460;-59
2022/09/30 07:15:56;;;;;;;4.78;3.50;;;;;;;8.35;100.00;100208.50;4994991;28;21109;-57
2022/09/30 07:18:22;;;;;;;6.95;4.63;;;;;;;8.38;100.00;100208.13;5001043;28;20483;-56
2022/09/30 07:20:52;;;;;;;3.97;3.47;;;;;;;8.41;100.00;100208.59;5001547;28;20029;-58
2022/09/30 07:23:19;;;;;;;4.95;2.88;;;;;;;8.42;100.00;100207.63;5009737;28;20038;-59
2022/09/30 07:25:56;;;;;;;5.38;4.38;;;;;;;8.47;100.00;100221.09;5003374;28;20065;-59
2022/09/30 07:28:26;;;;;;;13.73;4.03;;;;;;;8.46;100.00;100219.44;5008715;28;20434;-60
2022/09/30 07:30:55;;;;;;;5.65;3.20;;;;;;;8.45;100.00;100220.44;5006402;28;20094;-58
2022/09/30 07:33:21;;;;;;;3.78;3.33;;;;;;;8.48;100.00;100222.72;5003601;28;20113;-59
2022/09/30 07:35:52;;;;;;;5.30;2.85;;;;;;;8.51;100.00;100225.00;5003952;28;20085;-58
2022/09/30 07:38:20;;;;;;;7.50;4.60;;;;;;;8.51;100.00;100218.88;5002556;28;20026;-59
2022/09/30 07:40:57;;;;;;;4.35;3.33;;;;;;;8.48;100.00;100222.72;5006804;28;20041;-55
2022/09/30 07:43:24;;;;;;;9.13;2.83;;;;;;;8.47;100.00;100215.00;4999694;28;20108;-56
2022/09/30 07:45:50;;;;;;;5.88;3.50;;;;;;;8.52;100.00;100200.22;5002393;28;20030;-57
2022/09/30 07:51:22;;;;;;;6.68;4.15;;;;;;;8.58;100.00;100187.28;4984367;28;20042;-58
2022/09/30 07:53:53;;;;;;;5.00;3.17;;;;;;;8.66;100.00;100203.84;4980982;28;20082;-60
2022/09/30 07:56:20;;;;;;;8.20;3.92;;;;;;;8.70;100.00;100206.94;4993426;28;20744;-58
2022/09/30 07:58:46;;;;;;;7.43;3.63;;;;;;;8.77;100.00;100207.81;5011622;28;20499;-60
2022/09/30 08:01:12;;;;;;;5.72;2.97;;;;;;;8.80;100.00;100211.91;5012566;28;20040;-59
2022/09/30 08:03:40;;;;;;;4.95;3.45;;;;;;;8.88;100.00;100210.00;5004441;28;20120;-58
2022/09/30 08:06:08;;;;;;;7.22;3.40;;;;;;;8.95;100.00;100212.69;5010989;28;20026;-58
2022/09/30 08:08:34;;;;;;;11.80;5.00;;;;;;;8.95;100.00;100204.75;5010897;28;20096;-55
2022/09/30 08:11:01;;;;;;;10.40;4.22;;;;;;;8.97;100.00;100196.66;5010875;28;20147;-58
2022/09/30 08:13:26;;;;;;;8.30;4.63;;;;;;;8.94;100.00;100192.56;5009155;28;20554;-58
2022/09/30 08:15:52;;;;;;;11.10;5.72;;;;;;;8.92;100.00;100198.03;5008945;28;20034;-58
2022/09/30 08:18:17;;;;;;;7.55;4.72;;;;;;;8.98;100.00;100196.44;5007825;28;20022;-53
2022/09/30 08:20:43;;;;;;;7.03;4.82;;;;;;;9.02;100.00;100181.88;5009427;28;20021;-56
2022/09/30 08:23:08;;;;;;;6.85;4.68;;;;;;;9.04;100.00;100192.28;5011394;28;20426;-54
2022/09/30 08:25:33;;;;;;;9.10;5.05;;;;;;;9.04;100.00;100192.28;5007786;28;20073;-56
2022/09/30 08:27:59;;;;;;;6.15;4.20;;;;;;;9.03;100.00;100188.78;5010463;28;20363;-58
2022/09/30 08:30:24;;;;;;;10.02;5.38;;;;;;;9.04;100.00;100171.91;5004960;28;20030;-54
2022/09/30 08:32:49;;;;;;;9.25;6.05;;;;;;;9.06;100.00;100184.94;5006457;28;20053;-58
2022/09/30 08:35:15;;;;;;;8.55;4.03;;;;;;;9.04;100.00;100186.97;5010923;28;20030;-59
2022/09/30 08:37:40;;;;;;;6.55;4.53;;;;;;;9.02;100.00;100192.44;5007912;28;20037;-60
2022/09/30 08:40:17;;;;;;;7.53;5.65;;;;;;;8.99;100.00;100184.06;5009724;28;20067;-57
2022/09/30 08:42:50;;;;;;;6.50;5.13;;;;;;;8.95;100.00;100188.91;5006177;28;20021;-57
2022/09/30 08:45:33;;;;;;;6.60;4.63;;;;;;;9.08;100.00;100198.81;5009819;28;20368;-57
2022/09/30 08:48:32;;;;;;;7.53;4.95;;;;;;;9.10;100.00;100173.81;5009284;28;20037;-61
2022/09/30 08:51:03;;;;;;;9.07;5.13;;;;;;;9.20;100.00;100165.56;4999234;28;20038;-60
2022/09/30 08:53:31;;;;;;;;;;;;;;;9.33;100.00;100160.38;5007723;28;20487;-60
2022/09/30 08:56:01;;;;;;;8.23;5.25;;;;;;;9.37;100.00;100153.72;5010114;28;20244;-58
2022/09/30 08:58:32;;;;;;;6.53;5.32;;;;;;;9.54;100.00;100156.88;5008420;28;20107;-59
2022/09/30 09:01:26;;;;;;;8.85;6.75;;;;;;;9.70;100.00;100161.06;5006660;28;20464;-55
2022/09/30 09:03:52;;;;;;;8.55;5.60;;;;;;;9.76;100.00;100155.00;5006697;28;20430;-58
2022/09/30 09:06:22;;;;;;;9.80;5.68;;;;;;;9.81;100.00;100149.16;5009996;28;20100;-60
2022/09/30 09:08:58;;;;;;;15.10;6.50;;;;;;;9.88;100.00;100146.53;5008284;28;20483;-58
2022/09/30 09:11:32;;;;;;;10.43;6.38;;;;;;;9.94;100.00;100141.28;5006200;28;20401;-56
2022/09/30 09:14:12;;;;;;;11.25;7.05;;;;;;;9.99;100.00;100144.16;5002966;28;20064;-58
2022/09/30 09:16:57;;;;;;;11.23;7.03;;;;;;;9.88;100.00;100130.63;5008282;28;20171;-53
2022/09/30 09:19:30;;;;;;;10.48;6.63;;;;;;;9.88;100.00;100131.44;5008572;28;20108;-53
2022/09/30 09:22:01;;;;;;;12.38;6.53;;;;;;;9.94;100.00;100128.03;5007036;28;20447;-58
2022/09/30 09:24:32;;;;;;;11.25;7.45;;;;;;;9.98;100.00;100123.16;5008784;28;20037;-57
2022/09/30 09:26:58;;;;;;;9.02;6.28;;;;;;;10.01;100.00;100130.72;5007702;28;20518;-54
2022/09/30 09:29:48;;;;;;;10.13;6.65;;;;;;;10.14;100.00;100125.47;5006620;28;20100;-56
2022/09/30 09:32:16;;;;;;;10.05;6.50;;;;;;;10.25;100.00;100127.56;5007369;28;20037;-54
2022/09/30 09:34:42;;;;;;;10.88;7.40;;;;;;;10.38;100.00;100126.03;5006893;28;20164;-56
2022/09/30 09:38:23;;;;;;;8.85;6.93;;;;;;;10.56;100.00;100122.81;5007076;28;20438;-54
2022/09/30 09:40:34;;;;;;;9.98;7.25;;;;;;;10.73;100.00;100110.81;4999841;28;20045;-56
2022/09/30 09:43:29;;;;;;;10.15;6.10;;;;;;;10.94;100.00;100098.41;5009267;28;20033;-58
2022/09/30 09:46:26;;;;;;;6.22;5.25;;;;;;;11.07;100.00;100093.13;5002802;28;20083;-58
2022/09/30 09:49:30;;;;;;;10.10;5.88;;;;;;;11.01;100.00;100084.13;5000978;28;20103;-58
2022/09/30 09:51:59;;;;;;;12.40;6.85;;;;;;;11.04;100.00;100085.56;5003053;28;20038;-57
2022/09/30 09:54:27;;;;;;;8.98;6.25;;;;;;;11.07;100.00;100080.66;5007349;28;20030;-58
2022/09/30 09:56:53;;;;;;;9.80;6.75;;;;;;;11.04;100.00;100078.41;5002141;28;20030;-59
2022/09/30 09:59:19;;;;;;;9.05;5.80;;;;;;;11.05;100.00;100073.94;5009013;28;20061;-57
2022/09/30 10:01:53;;;;;;;9.85;6.50;;;;;;;11.10;100.00;100067.00;5005499;28;20479;-58
2022/09/30 10:04:28;;;;;;;7.20;5.50;;;;;;;11.21;100.00;100068.22;5007831;28;20053;-56
2022/09/30 10:06:59;;;;;;;10.02;5.82;;;;;;;11.37;100.00;100066.97;5004858;28;20038;-58
2022/09/30 10:09:35;;;;;;;7.60;5.13;;;;;;;11.48;100.00;100060.22;5009231;28;20026;-58
2022/09/30 10:12:06;;;;;;;8.27;5.25;;;;;;;11.54;100.00;100054.91;5008614;28;20074;-57
2022/09/30 10:14:47;;;;;;;6.60;4.45;;;;;;;11.65;100.00;100050.00;5005247;28;20107;-55
2022/09/30 10:17:24;;;;;;;7.93;5.43;;;;;;;11.71;100.00;100044.63;5006070;28;20108;-55
2022/09/30 10:19:53;;;;;;;8.15;5.80;;;;;;;11.74;100.00;100041.56;5007401;28;20034;-56
2022/09/30 10:22:24;;;;;;;7.93;5.72;;;;;;;11.78;100.00;100029.50;5009402;28;20029;-58
2022/09/30 10:24:49;;;;;;;10.30;6.53;;;;;;;11.85;100.00;100032.16;5002168;28;20112;-57
2022/09/30 10:27:30;;;;;;;9.88;6.63;;;;;;;11.91;100.00;100022.56;5008125;28;20120;-59
2022/09/30 10:29:55;;;;;;;7.23;5.43;;;;;;;12.02;100.00;100021.88;5005539;28;20030;-55
2022/09/30 10:32:22;;;;;;;7.78;5.85;;;;;;;12.06;100.00;100014.31;5007533;28;20119;-58
2022/09/30 10:34:55;;;;;;;10.40;6.53;;;;;;;12.12;100.00;100008.94;5004981;28;20109;-58
2022/09/30 10:37:22;;;;;;;11.05;5.88;;;;;;;12.23;100.00;100010.94;5005789;28;20041;-58
2022/09/30 10:40:00;;;;;;;9.80;6.22;;;;;;;12.34;100.00;100003.31;5013607;28;20042;-58
2022/09/30 10:42:33;;;;;;;8.77;6.07;;;;;;;12.42;100.00;99997.75;5010587;28;20372;-58
2022/09/30 10:45:17;;;;;;;11.55;6.63;;;;;;;12.59;100.00;99984.72;5010472;28;20036;-58
2022/09/30 10:47:45;;;;;;;11.43;6.38;;;;;;;12.85;100.00;99978.38;5013201;28;20433;-59
2022/09/30 10:50:16;;;;;;;10.60;7.55;;;;;;;13.18;100.00;99980.75;5010531;28;20107;-58
2022/09/30 10:53:14;;;;;;;13.73;6.78;;;;;;;13.23;100.00;99956.13;5014463;28;20037;-56
2022/09/30 10:55:44;;;;;;;10.75;6.30;;;;;;;13.22;100.00;99957.97;5009550;28;20100;-59
2022/09/30 10:58:44;;;;;;;10.50;6.15;;;;;;;13.19;100.00;99946.94;5004022;28;20038;-59
2022/09/30 11:01:22;;;;;;;11.80;6.03;;;;;;;13.16;100.00;99942.88;5011911;28;20491;-62
2022/09/30 11:03:58;;;;;;;6.65;5.50;;;;;;;13.15;100.00;99951.91;5011492;28;20060;-61
2022/09/30 11:06:25;;;;;;;8.10;6.80;;;;;;;13.17;100.00;99949.84;5008176;28;20088;-58
2022/09/30 11:09:28;;;;;;;6.82;5.00;;;;;;;13.23;100.00;99930.31;5013009;28;20386;-58
2022/09/30 11:12:01;;;;;;;8.55;4.72;;;;;;;13.32;100.00;99922.88;5011911;28;20065;-56
2022/09/30 11:14:36;;;;;;;11.50;5.20;;;;;;;13.33;100.00;99911.19;5011902;28;20056;-63
2022/09/30 11:17:27;;;;;;;6.53;3.83;;;;;;;13.41;100.00;99910.88;5009708;28;20199;-62
2022/09/30 11:20:23;;;;;;;7.40;3.67;;;;;;;13.50;100.00;99909.56;5004035;28;20116;-61
2022/09/30 11:23:13;;;;;;;7.20;3.95;;;;;;;13.56;100.00;99909.69;5008836;28;20100;-63
2022/09/30 11:25:54;;;;;;;6.15;4.28;;;;;;;13.55;100.00;99892.06;5008154;28;20045;-60
2022/09/30 11:28:24;;;;;;;9.07;3.92;;;;;;;13.56;100.00;99891.06;5004050;28;20110;-62
2022/09/30 11:31:02;;;;;;;3.67;2.53;;;;;;;13.63;100.00;99879.28;5012126;28;20046;-58
2022/09/30 11:33:45;;;;;;;5.03;2.97;;;;;;;13.69;100.00;99874.91;5012985;28;20479;-60
2022/09/30 11:36:22;;;;;;;3.20;2.20;;;;;;;13.71;100.00;99865.63;5008917;28;20030;-61
2022/09/30 11:39:08;;;;;;;5.90;3.28;;;;;;;13.75;100.00;99858.78;5009639;28;20041;-60
2022/09/30 11:41:41;;;;;;;3.00;2.47;;;;;;;13.79;100.00;99861.03;5011774;28;20108;-63
2022/09/30 11:44:18;;;;;;;2.95;1.67;;;;;;;13.80;100.00;99850.13;5011699;28;20037;-59
2022/09/30 11:47:11;;;;;;;6.10;2.15;;;;;;;13.87;100.00;99858.84;5006158;28;20059;-63
2022/09/30 11:50:07;;;;;;;12.40;4.35;;;;;;;13.91;100.00;99848.53;5008609;28;20559;-63